Time,TemperatureF,DewpointF,PressureIn,WindDirection,WindDirectionDegrees,WindSpeedMPH,WindSpeedGustMPH,Humidity,HourlyPrecipIn,Conditions,Clouds,dailyrainin,SolarRadiationWatts/m^2,SoftwareType,DateUTC
2013-10-09 00:21:00,59.0,25.0,-100.00,NE,42,3.0,11.0,27,0.00,,,0.00,0.000000,,2013-10-09 07:21:00,
2013-10-09 00:31:00,59.0,25.0,-100.00,NE,42,3.0,11.0,27,0.00,,,0.00,0.000000,,2013-10-09 07:31:00,
2013-10-09 00:42:00,59.0,25.0,-100.00,NE,42,3.0,11.0,27,0.00,,,0.00,0.000000,,2013-10-09 07:42:00,
2013-10-09 00:52:00,59.0,25.0,-100.00,NE,42,3.0,11.0,27,0.00,,,0.00,0.000000,,2013-10-09 07:52:00,
2013-10-09 01:23:00,60.0,27.0,-100.00,NNE,13,5.0,11.0,28,0.00,,,0.00,0.000000,,2013-10-09 08:23:00,
2013-10-09 01:32:00,60.0,27.0,-100.00,NNE,13,5.0,11.0,28,0.00,,,0.00,0.000000,,2013-10-09 08:32:00,
2013-10-09 01:42:00,60.0,27.0,-100.00,NNE,13,5.0,11.0,28,0.00,,,0.00,0.000000,,2013-10-09 08:42:00,
2013-10-09 01:53:00,60.0,27.0,-100.00,NNE,13,5.0,11.0,28,0.00,,,0.00,0.000000,,2013-10-09 08:53:00,
2013-10-09 02:22:00,59.0,26.0,-100.00,NNE,15,4.0,9.0,28,0.00,,,0.00,0.000000,,2013-10-09 09:22:00,
2013-10-09 02:33:00,59.0,26.0,-100.00,NNE,15,4.0,9.0,28,0.00,,,0.00,0.000000,,2013-10-09 09:33:00,
2013-10-09 02:43:00,59.0,26.0,-100.00,NNE,15,4.0,9.0,28,0.00,,,0.00,0.000000,,2013-10-09 09:43:00,
2013-10-09 02:53:00,59.0,26.0,-100.00,NNE,15,4.0,9.0,28,0.00,,,0.00,0.000000,,2013-10-09 09:53:00,
2013-10-09 03:23:00,57.0,30.0,-100.00,SSE,159,4.0,7.0,36,0.00,,,0.00,0.000000,,2013-10-09 10:23:00,
2013-10-09 03:32:00,57.0,30.0,-100.00,SSE,159,4.0,7.0,36,0.00,,,0.00,0.000000,,2013-10-09 10:32:00,
2013-10-09 03:43:00,57.0,30.0,-100.00,SSE,159,4.0,7.0,36,0.00,,,0.00,0.000000,,2013-10-09 10:43:00,
2013-10-09 03:52:00,57.0,30.0,-100.00,SSE,159,4.0,7.0,36,0.00,,,0.00,0.000000,,2013-10-09 10:52:00,
2013-10-09 04:22:00,54.0,33.0,-100.00,SSE,150,5.0,14.0,45,0.00,,,0.00,0.000000,,2013-10-09 11:22:00,
2013-10-09 04:33:00,54.0,33.0,-100.00,SSE,150,5.0,14.0,45,0.00,,,0.00,0.000000,,2013-10-09 11:33:00,
2013-10-09 04:42:00,54.0,33.0,-100.00,SSE,150,5.0,14.0,45,0.00,,,0.00,0.000000,,2013-10-09 11:42:00,
2013-10-09 04:52:00,54.0,33.0,-100.00,SSE,150,5.0,14.0,45,0.00,,,0.00,0.000000,,2013-10-09 11:52:00,
2013-10-09 05:21:00,54.0,33.0,-100.00,SE,141,7.0,14.0,44,0.00,,,0.00,0.000000,,2013-10-09 12:21:00,
2013-10-09 05:32:00,54.0,33.0,-100.00,SE,141,7.0,14.0,44,0.00,,,0.00,0.000000,,2013-10-09 12:32:00,
2013-10-09 05:42:00,54.0,33.0,-100.00,SE,141,7.0,14.0,44,0.00,,,0.00,0.000000,,2013-10-09 12:42:00,
2013-10-09 05:52:00,54.0,33.0,-100.00,SE,141,7.0,14.0,44,0.00,,,0.00,0.000000,,2013-10-09 12:52:00,
2013-10-09 06:22:00,56.0,33.0,-100.00,NNE,19,5.0,11.0,41,0.00,,,0.00,0.000000,,2013-10-09 13:22:00,
2013-10-09 06:32:00,56.0,33.0,-100.00,NNE,19,5.0,11.0,41,0.00,,,0.00,0.000000,,2013-10-09 13:32:00,
2013-10-09 06:42:00,56.0,33.0,-100.00,NNE,19,5.0,11.0,41,0.00,,,0.00,0.000000,,2013-10-09 13:42:00,
2013-10-09 06:52:00,56.0,33.0,-100.00,NNE,19,5.0,11.0,41,0.00,,,0.00,0.000000,,2013-10-09 13:52:00,
2013-10-09 07:22:00,53.0,30.0,-100.00,WNW,295,12.0,28.0,41,0.00,,,0.00,0.000000,,2013-10-09 14:22:00,
2013-10-09 07:32:00,53.0,30.0,-100.00,WNW,295,12.0,28.0,41,0.00,,,0.00,0.000000,,2013-10-09 14:32:00,
2013-10-09 07:41:00,53.0,30.0,-100.00,WNW,295,12.0,28.0,41,0.00,,,0.00,0.000000,,2013-10-09 14:41:00,
2013-10-09 07:52:00,53.0,30.0,-100.00,WNW,295,12.0,28.0,41,0.00,,,0.00,0.000000,,2013-10-09 14:52:00,
2013-10-09 08:22:00,52.0,30.0,-100.00,SSE,158,16.0,33.0,43,0.00,,,0.00,23.000000,,2013-10-09 15:22:00,
2013-10-09 08:33:00,52.0,30.0,-100.00,SSE,158,16.0,33.0,43,0.00,,,0.00,23.000000,,2013-10-09 15:33:00,
2013-10-09 08:43:00,52.0,30.0,-100.00,SSE,158,16.0,33.0,43,0.00,,,0.00,23.000000,,2013-10-09 15:43:00,
2013-10-09 08:53:00,52.0,30.0,-100.00,SSE,158,16.0,33.0,43,0.00,,,0.00,23.000000,,2013-10-09 15:53:00,
2013-10-09 09:24:00,52.0,31.0,-100.00,SSE,151,19.0,29.0,45,0.00,,,0.00,231.000000,,2013-10-09 16:24:00,
2013-10-09 09:32:00,52.0,31.0,-100.00,SSE,151,19.0,29.0,45,0.00,,,0.00,231.000000,,2013-10-09 16:32:00,
2013-10-09 09:42:00,52.0,31.0,-100.00,SSE,151,19.0,29.0,45,0.00,,,0.00,231.000000,,2013-10-09 16:42:00,
2013-10-09 09:52:00,52.0,31.0,-100.00,SSE,151,19.0,29.0,45,0.00,,,0.00,231.000000,,2013-10-09 16:52:00,
2013-10-09 10:22:00,52.0,33.0,-100.00,SSE,153,14.0,24.0,49,0.00,,,0.00,216.000000,,2013-10-09 17:22:00,
2013-10-09 10:33:00,52.0,33.0,-100.00,SSE,153,14.0,24.0,49,0.00,,,0.00,216.000000,,2013-10-09 17:33:00,
2013-10-09 10:42:00,52.0,33.0,-100.00,SSE,153,14.0,24.0,49,0.00,,,0.00,216.000000,,2013-10-09 17:42:00,
2013-10-09 10:52:00,52.0,33.0,-100.00,SSE,153,14.0,24.0,49,0.00,,,0.00,216.000000,,2013-10-09 17:52:00,
2013-10-09 11:22:00,52.0,33.0,-100.00,SSE,161,18.0,23.0,49,0.00,,,0.00,184.000000,,2013-10-09 18:22:00,
2013-10-09 11:32:00,52.0,33.0,-100.00,SSE,161,18.0,23.0,49,0.00,,,0.00,184.000000,,2013-10-09 18:32:00,
2013-10-09 11:42:00,52.0,33.0,-100.00,SSE,161,18.0,23.0,49,0.00,,,0.00,184.000000,,2013-10-09 18:42:00,
2013-10-09 11:52:00,52.0,33.0,-100.00,SSE,161,18.0,23.0,49,0.00,,,0.00,184.000000,,2013-10-09 18:52:00,
2013-10-09 12:22:00,54.0,34.0,-100.00,NW,311,6.0,24.0,46,0.00,,,0.00,207.000000,,2013-10-09 19:22:00,
2013-10-09 12:32:00,54.0,34.0,-100.00,NW,311,6.0,24.0,46,0.00,,,0.00,207.000000,,2013-10-09 19:32:00,
2013-10-09 12:42:00,54.0,34.0,-100.00,NW,311,6.0,24.0,46,0.00,,,0.00,207.000000,,2013-10-09 19:42:00,
2013-10-09 12:52:00,54.0,34.0,-100.00,NW,311,6.0,24.0,46,0.00,,,0.00,207.000000,,2013-10-09 19:52:00,
2013-10-09 13:22:00,55.0,38.0,-100.00,SSW,206,2.0,18.0,52,0.00,,,0.00,238.000000,,2013-10-09 20:22:00,
2013-10-09 13:32:00,55.0,38.0,-100.00,SSW,206,2.0,18.0,52,0.00,,,0.00,238.000000,,2013-10-09 20:32:00,
2013-10-09 13:43:00,55.0,38.0,-100.00,SSW,206,2.0,18.0,52,0.00,,,0.00,238.000000,,2013-10-09 20:43:00,
2013-10-09 13:52:00,55.0,38.0,-100.00,SSW,206,2.0,18.0,52,0.00,,,0.00,238.000000,,2013-10-09 20:52:00,
2013-10-09 14:22:00,52.0,33.0,-100.00,NNW,348,2.0,24.0,49,0.00,,,0.00,144.000000,,2013-10-09 21:22:00,
2013-10-09 14:34:00,52.0,33.0,-100.00,NNW,348,2.0,24.0,49,0.00,,,0.00,144.000000,,2013-10-09 21:34:00,
2013-10-09 14:43:00,52.0,33.0,-100.00,NNW,348,2.0,24.0,49,0.00,,,0.00,144.000000,,2013-10-09 21:43:00,
2013-10-09 14:53:00,52.0,33.0,-100.00,NNW,348,2.0,24.0,49,0.00,,,0.00,144.000000,,2013-10-09 21:53:00,
2013-10-09 15:24:00,55.0,34.0,-100.00,North,358,7.0,12.0,45,0.00,,,0.00,158.000000,,2013-10-09 22:24:00,
2013-10-09 15:34:00,55.0,34.0,-100.00,North,358,7.0,12.0,45,0.00,,,0.00,158.000000,,2013-10-09 22:34:00,
2013-10-09 15:43:00,55.0,34.0,-100.00,North,358,7.0,12.0,45,0.00,,,0.00,158.000000,,2013-10-09 22:43:00,
2013-10-09 15:53:00,55.0,34.0,-100.00,North,358,7.0,12.0,45,0.00,,,0.00,158.000000,,2013-10-09 22:53:00,
2013-10-09 16:22:00,53.0,39.0,-100.00,NNW,327,11.0,23.0,59,0.00,,,0.00,109.000000,,2013-10-09 23:22:00,
2013-10-09 16:34:00,53.0,39.0,-100.00,NNW,327,11.0,23.0,59,0.00,,,0.00,109.000000,,2013-10-09 23:34:00,
2013-10-09 16:42:00,53.0,39.0,-100.00,NNW,327,11.0,23.0,59,0.00,,,0.00,109.000000,,2013-10-09 23:42:00,
2013-10-09 16:53:00,53.0,39.0,-100.00,NNW,327,11.0,23.0,59,0.00,,,0.00,109.000000,,2013-10-09 23:53:00,
2013-10-09 17:22:00,47.0,36.0,-100.00,WNW,297,19.0,36.0,66,0.00,,,0.00,80.000000,,2013-10-10 00:22:00,
2013-10-09 17:32:00,47.0,36.0,-100.00,WNW,297,19.0,36.0,66,0.00,,,0.00,80.000000,,2013-10-10 00:32:00,
2013-10-09 17:42:00,47.0,36.0,-100.00,WNW,297,19.0,36.0,66,0.00,,,0.00,80.000000,,2013-10-10 00:42:00,
2013-10-09 17:52:00,47.0,36.0,-100.00,WNW,297,19.0,36.0,66,0.00,,,0.00,80.000000,,2013-10-10 00:52:00,
2013-10-09 18:21:00,48.0,37.0,-100.00,NW,318,7.0,25.0,65,0.00,,,0.00,36.000000,,2013-10-10 01:21:00,
2013-10-09 18:32:00,48.0,37.0,-100.00,NW,318,7.0,25.0,65,0.00,,,0.00,36.000000,,2013-10-10 01:32:00,
2013-10-09 18:42:00,48.0,37.0,-100.00,NW,318,7.0,25.0,65,0.00,,,0.00,36.000000,,2013-10-10 01:42:00,
2013-10-09 18:52:00,48.0,37.0,-100.00,NW,318,7.0,25.0,65,0.00,,,0.00,36.000000,,2013-10-10 01:52:00,
2013-10-09 19:22:00,48.0,40.0,-100.00,North,10,7.0,16.0,74,0.00,,,0.00,5.000000,,2013-10-10 02:22:00,
2013-10-09 19:32:00,48.0,40.0,-100.00,North,10,7.0,16.0,74,0.00,,,0.00,5.000000,,2013-10-10 02:32:00,
2013-10-09 19:42:00,48.0,40.0,-100.00,North,10,7.0,16.0,74,0.00,,,0.00,5.000000,,2013-10-10 02:42:00,
2013-10-09 19:52:00,48.0,40.0,-100.00,North,10,7.0,16.0,74,0.00,,,0.00,5.000000,,2013-10-10 02:52:00,
2013-10-09 20:22:00,48.0,38.0,-100.00,NNW,341,6.0,11.0,68,0.00,,,0.00,0.000000,,2013-10-10 03:22:00,
2013-10-09 20:34:00,48.0,38.0,-100.00,NNW,341,6.0,11.0,68,0.00,,,0.00,0.000000,,2013-10-10 03:34:00,
2013-10-09 20:44:00,48.0,38.0,-100.00,NNW,341,6.0,11.0,68,0.00,,,0.00,0.000000,,2013-10-10 03:44:00,
2013-10-09 20:54:00,48.0,38.0,-100.00,NNW,341,6.0,11.0,68,0.00,,,0.00,0.000000,,2013-10-10 03:54:00,
2013-10-09 21:24:00,47.0,38.0,-100.00,South,184,4.0,11.0,71,0.00,,,0.00,0.000000,,2013-10-10 04:24:00,
2013-10-09 21:33:00,47.0,38.0,-100.00,South,184,4.0,11.0,71,0.00,,,0.00,0.000000,,2013-10-10 04:33:00,
2013-10-09 21:46:00,47.0,38.0,-100.00,South,184,4.0,11.0,71,0.00,,,0.00,0.000000,,2013-10-10 04:46:00,
2013-10-09 21:53:00,47.0,38.0,-100.00,South,184,4.0,11.0,71,0.00,,,0.00,0.000000,,2013-10-10 04:53:00,
2013-10-09 22:22:00,44.0,36.0,-100.00,SSE,154,2.0,7.0,73,0.00,,,0.00,0.000000,,2013-10-10 05:22:00,
2013-10-09 22:34:00,44.0,36.0,-100.00,SSE,154,2.0,7.0,73,0.00,,,0.00,0.000000,,2013-10-10 05:34:00,
2013-10-09 22:43:00,44.0,36.0,-100.00,SSE,154,2.0,7.0,73,0.00,,,0.00,0.000000,,2013-10-10 05:43:00,
2013-10-09 22:52:00,44.0,36.0,-100.00,SSE,154,2.0,7.0,73,0.00,,,0.00,0.000000,,2013-10-10 05:52:00,
2013-10-09 23:22:00,45.0,37.0,-100.00,North,4,0.0,8.0,73,0.00,,,0.00,0.000000,,2013-10-10 06:22:00,
2013-10-09 23:33:00,45.0,37.0,-100.00,North,4,0.0,8.0,73,0.00,,,0.00,0.000000,,2013-10-10 06:33:00,
2013-10-09 23:42:00,45.0,37.0,-100.00,North,4,0.0,8.0,73,0.00,,,0.00,0.000000,,2013-10-10 06:42:00,
2013-10-09 23:52:00,45.0,37.0,-100.00,North,4,0.0,8.0,73,0.00,,,0.00,0.000000,,2013-10-10 06:52:00,